Overview Statistics Trail Chart Weather Telemetry Raw packets
 

This is the latest recevied weather packets stored in our database for station/object KB1WCR. If no packets are shown the sender has not sent any weather packets the latest 10 day(s).

<< 77 78 79 80 81 82 83 >>
Time Temp. Humidity Pressure Rain* Wind** Luminosity Snow
1787852781 24.44° C 83% 1016.7 hPa 0 mm - 162 W/m² -
1787852480 24.44° C 81% 1016.7 hPa 0 mm - 129 W/m² -
1787852180 25° C 78% 1016.8 hPa 0 mm - 210 W/m² -
1787851875 26.11° C 75% 1016.9 hPa 0 mm - 307 W/m² -
1787851573 26.67° C 73% 1016.5 hPa 0 mm - 365 W/m² -
1787851269 26.67° C 72% 1016.7 hPa 0 mm - 557 W/m² -
1787850964 26.67° C 74% 1016.6 hPa 0 mm - 632 W/m² -
1787850659 27.22° C 71% 1016.6 hPa 0 mm - 585 W/m² -
1787850355 27.78° C 69% 1016.6 hPa 0 mm - 479 W/m² -
1787850045 27.22° C 70% 1016.7 hPa 0 mm - 656 W/m² -
1787849743 26.67° C 70% 1016.7 hPa 0 mm - 500 W/m² -
1787849439 27.22° C 66% 1016.9 hPa 0 mm - 256 W/m² -
1787849132 27.22° C 66% 1016.8 hPa 0 mm - 811 W/m² -
1787848827 27.78° C 65% 1016.9 hPa 0 mm - 227 W/m² -
1787848526 27.22° C 70% 1016.9 hPa 0 mm - 789 W/m² -
1787848221 26.67° C 71% 1016.9 hPa 0 mm - 855 W/m² -
1787847920 27.22° C 69% 1017.1 hPa 0 mm - 231 W/m² -
1787847615 26.67° C 71% 1017 hPa 0 mm - 835 W/m² -
1787847311 26.67° C 71% 1017.2 hPa 0 mm - 268 W/m² -
1787847007 26.67° C 73% 1017.4 hPa 0 mm - 176 W/m² -
1787846707 26.67° C 74% 1017.4 hPa 0 mm - 767 W/m² -
1787846402 25.56° C 75% 1017.5 hPa 0 mm - 765 W/m² -
1787846097 25.56° C 73% 1017.5 hPa 0 mm - 620 W/m² -
1787845793 25.56° C 73% 1017.5 hPa 0 mm - 242 W/m² -
1787845488 27.22° C 69% 1017.5 hPa 0 mm - 742 W/m² -

* Rain latest hour (hover to see other rain measurements)
** Current wind speed in m/s (hover to see current wind gust speed)